Terminal Aerodrome Forecast
Issued by NWS

Home | Current Version | Previous Version | Text Only | Print | Product List | Glossary On
Versions: 1 2 3 4 5 6 7 8 9 10 11 12 13 14 15 16 17
000
FTUS45 KTFX 281640 AAA
TAFGTF
TAF AMD
KGTF 281640Z 2817/2912 29015KT P6SM SCT200
     FM290200 30014G23KT P6SM FEW080 BKN100
     FM290700 30010KT P6SM SCT030 BKN080 PROB30 2908/2912 -SHRA
      BKN030=

USA.gov is the U.S. government's official web portal to all federal, state and local government web resources and services.